Time;durP1;ratioP1;P1;durP2;ratioP2;P2;SDS_P1;SDS_P2;PMS_P1;PMS_P2;Temp;Humidity;BMP_temperature;BMP_pressure;BME280_temperature;BME280_humidity;BME280_pressure;Samples;Min_cycle;Max_cycle;Signal;HPM_P1;HPM_P2
2022/03/28 00:01:43;;;;;;;33.80;20.30;;;;;;;5.34;67.57;101233.89;2863246;82;21087;-70
2022/03/28 00:05:44;;;;;;;42.93;27.70;;;;;;;5.37;67.52;101231.11;2870490;80;21063;-70
2022/03/28 00:09:46;;;;;;;29.67;19.70;;;;;;;5.44;67.68;101234.33;2867457;80;21030;-70
2022/03/28 00:13:48;;;;;;;28.23;16.65;;;;;;;5.49;67.98;101220.94;2887144;82;20988;-70
2022/03/28 00:17:49;;;;;;;40.33;24.12;;;;;;;5.47;68.20;101223.63;2874038;80;21056;-71
2022/03/28 00:21:51;;;;;;;37.60;24.18;;;;;;;5.46;67.72;101215.32;2886058;82;21611;-70
2022/03/28 00:25:52;;;;;;;32.95;18.57;;;;;;;5.40;67.72;101209.88;2888252;82;21035;-69
2022/03/28 00:29:54;;;;;;;31.35;17.80;;;;;;;5.36;67.77;101207.45;2884873;82;21090;-69
2022/03/28 00:33:55;;;;;;;24.12;15.93;;;;;;;5.40;67.94;101204.61;2883855;82;21031;-70
2022/03/28 00:37:57;;;;;;;25.43;16.73;;;;;;;5.44;68.01;101202.66;2885129;82;21062;-70
2022/03/28 00:41:59;;;;;;;22.45;16.07;;;;;;;5.49;68.01;101196.70;2875246;81;21134;-70
2022/03/28 00:46:01;;;;;;;16.60;12.23;;;;;;;5.52;68.03;101189.98;2878618;82;21075;-70
2022/03/28 00:50:04;;;;;;;21.90;13.98;;;;;;;5.57;68.40;101184.47;2883491;82;21060;-70
2022/03/28 00:54:07;;;;;;;22.27;14.28;;;;;;;5.55;68.38;101183.24;2832806;82;21098;-69
2022/03/28 00:58:08;;;;;;;31.35;20.20;;;;;;;5.54;68.56;101171.42;2771825;85;21035;-69
2022/03/28 01:02:10;;;;;;;60.83;32.95;;;;;;;5.54;68.36;101164.83;2835123;83;21047;-70
2022/03/28 01:06:12;;;;;;;75.35;36.85;;;;;;;5.55;68.35;101159.48;2782017;85;21096;-70
2022/03/28 01:10:14;;;;;;;38.65;22.17;;;;;;;5.56;68.27;101150.64;2836448;82;21023;-70
2022/03/28 01:14:16;;;;;;;41.02;23.75;;;;;;;5.58;68.11;101142.19;2872024;82;21057;-71
2022/03/28 01:18:18;;;;;;;38.53;23.18;;;;;;;5.60;67.99;101137.30;2868890;82;21501;-69
2022/03/28 01:22:20;;;;;;;34.73;20.97;;;;;;;5.62;67.84;101139.39;2876957;82;21646;-70
2022/03/28 01:26:22;;;;;;;36.98;21.93;;;;;;;5.62;67.79;101138.08;2877574;82;21079;-70
2022/03/28 01:30:24;;;;;;;33.85;21.33;;;;;;;5.60;67.92;101139.48;2862590;82;21046;-70
2022/03/28 01:34:25;;;;;;;50.90;25.40;;;;;;;5.53;68.24;101134.95;2881622;82;21092;-70
2022/03/28 01:38:26;;;;;;;38.05;23.42;;;;;;;5.40;68.01;101133.36;2888209;82;21047;-71
2022/03/28 01:42:28;;;;;;;48.80;24.75;;;;;;;5.35;68.31;101130.54;2878554;82;21028;-70
2022/03/28 01:46:29;;;;;;;44.73;25.57;;;;;;;5.27;67.65;101123.81;2873224;81;21165;-71
2022/03/28 01:50:31;;;;;;;33.75;20.27;;;;;;;5.24;67.43;101118.69;2885394;80;21044;-70
2022/03/28 01:54:33;;;;;;;26.23;16.45;;;;;;;5.19;67.38;101114.09;2868696;81;21015;-71
2022/03/28 01:58:34;;;;;;;26.23;15.80;;;;;;;5.14;67.46;101106.86;2882754;82;21012;-70
2022/03/28 02:02:36;;;;;;;19.45;14.20;;;;;;;5.10;67.66;101103.95;2875198;82;21593;-71
2022/03/28 02:06:38;;;;;;;18.73;14.50;;;;;;;5.03;67.91;101098.13;2881524;80;21066;-70
2022/03/28 02:10:39;;;;;;;18.42;13.40;;;;;;;5.02;68.20;101098.18;2883624;81;21071;-70
2022/03/28 02:14:41;;;;;;;25.48;15.58;;;;;;;4.98;68.42;101089.55;2883786;80;20996;-70
2022/03/28 02:18:42;;;;;;;19.60;14.87;;;;;;;4.97;68.57;101088.70;2884519;82;21028;-70
2022/03/28 02:22:46;;;;;;;20.32;14.15;;;;;;;4.99;68.62;101081.58;2871144;80;21047;-69
2022/03/28 02:26:48;;;;;;;23.30;13.48;;;;;;;4.97;68.66;101070.25;2877067;80;20984;-70
2022/03/28 02:30:49;;;;;;;25.77;14.20;;;;;;;4.96;68.90;101071.17;2877277;82;21040;-70
2022/03/28 02:34:51;;;;;;;20.95;13.83;;;;;;;4.97;68.99;101067.61;2875063;82;21047;-70
2022/03/28 02:38:52;;;;;;;12.70;10.58;;;;;;;4.96;69.16;101065.91;2858330;80;21035;-71
2022/03/28 02:42:55;;;;;;;21.62;15.00;;;;;;;4.98;69.21;101060.09;2877610;80;21000;-70
2022/03/28 02:46:56;;;;;;;21.52;15.32;;;;;;;5.02;69.27;101058.62;2874571;81;21062;-70
2022/03/28 02:50:58;;;;;;;16.27;11.53;;;;;;;5.06;68.97;101061.51;2889141;82;21027;-69
2022/03/28 02:55:00;;;;;;;17.42;10.53;;;;;;;4.95;69.06;101058.92;2877996;82;21031;-70
2022/03/28 02:59:01;;;;;;;18.73;13.48;;;;;;;4.89;68.54;101059.66;2878498;80;21566;-70
2022/03/28 03:03:03;;;;;;;20.30;13.45;;;;;;;4.84;68.37;101053.27;2867697;82;20972;-70
2022/03/28 03:07:05;;;;;;;20.35;13.05;;;;;;;4.77;69.00;101048.73;2889983;80;21599;-70
2022/03/28 03:11:07;;;;;;;20.12;13.60;;;;;;;4.69;69.25;101046.44;2871096;81;20991;-70
2022/03/28 03:15:08;;;;;;;20.25;14.33;;;;;;;4.66;69.20;101045.74;2885610;82;21580;-71
2022/03/28 03:19:10;;;;;;;25.85;16.70;;;;;;;4.66;69.33;101051.85;2883928;82;21035;-70
2022/03/28 03:23:11;;;;;;;20.57;13.62;;;;;;;4.69;69.58;101042.48;2876355;81;21043;-69
2022/03/28 03:27:14;;;;;;;18.50;12.88;;;;;;;4.69;69.81;101046.44;2857954;82;21058;-70
2022/03/28 03:31:15;;;;;;;19.23;12.07;;;;;;;4.74;69.84;101040.97;2834356;83;20995;-70
2022/03/28 03:35:17;;;;;;;18.42;14.03;;;;;;;4.78;69.81;101041.70;2869713;81;21018;-70
2022/03/28 03:39:18;;;;;;;20.02;13.70;;;;;;;4.81;69.77;101042.39;2880722;80;21027;-70
2022/03/28 03:43:21;;;;;;;17.92;11.97;;;;;;;4.81;69.89;101042.87;2879083;82;21079;-70
2022/03/28 03:47:23;;;;;;;15.20;11.20;;;;;;;4.82;69.85;101035.35;2857443;82;21536;-70
2022/03/28 03:51:25;;;;;;;18.45;11.22;;;;;;;4.86;69.95;101036.47;2888388;82;21047;-70
2022/03/28 03:55:26;;;;;;;15.23;12.13;;;;;;;4.82;70.36;101032.27;2869518;80;21011;-70
2022/03/28 03:59:28;;;;;;;23.52;13.75;;;;;;;4.82;70.43;101028.76;2887654;82;21064;-70
2022/03/28 04:03:29;;;;;;;23.73;13.93;;;;;;;4.86;70.33;101029.00;2879199;82;21070;-70
2022/03/28 04:07:31;;;;;;;21.68;13.90;;;;;;;4.83;70.46;101025.20;2879000;80;21024;-72
2022/03/28 04:11:32;;;;;;;16.77;10.40;;;;;;;4.84;70.87;101022.95;2873128;80;21039;-70
2022/03/28 04:15:34;;;;;;;28.15;14.78;;;;;;;4.91;70.97;101023.05;2873261;80;21027;-69
2022/03/28 04:19:35;;;;;;;26.68;14.50;;;;;;;4.92;70.94;101020.84;2876823;82;21023;-69
2022/03/28 04:23:37;;;;;;;61.88;23.62;;;;;;;4.92;70.79;101020.84;2869728;80;21583;-69
2022/03/28 04:27:40;;;;;;;29.12;18.05;;;;;;;4.84;70.67;101021.64;2868050;80;21617;-70
2022/03/28 04:31:42;;;;;;;23.67;15.45;;;;;;;4.85;70.60;101015.44;2888918;82;21102;-69
2022/03/28 04:35:43;;;;;;;21.48;14.40;;;;;;;4.87;70.62;101018.84;2875387;82;21020;-69
2022/03/28 04:39:45;;;;;;;25.05;15.55;;;;;;;4.93;70.43;101019.91;2892091;82;21084;-69
2022/03/28 04:43:46;;;;;;;19.87;15.23;;;;;;;4.97;70.26;101012.69;2882093;82;21023;-70
2022/03/28 04:47:48;;;;;;;38.88;16.67;;;;;;;4.94;70.17;101015.02;2879734;80;21074;-69
2022/03/28 04:51:49;;;;;;;22.10;15.35;;;;;;;4.99;70.29;101014.78;2869760;80;21130;-70
2022/03/28 04:55:51;;;;;;;24.32;16.70;;;;;;;5.00;70.64;101008.58;2872784;82;21138;-70
2022/03/28 04:59:52;;;;;;;30.02;18.60;;;;;;;5.05;71.11;101008.38;2879625;80;21030;-69
2022/03/28 05:03:53;;;;;;;26.62;14.38;;;;;;;5.11;71.58;101012.03;2892596;82;21044;-69
2022/03/28 05:07:55;;;;;;;24.67;14.90;;;;;;;5.19;72.69;101001.98;2874038;80;21038;-70
2022/03/28 05:11:57;;;;;;;20.52;12.40;;;;;;;5.70;73.97;101005.27;2879071;82;21079;-70
2022/03/28 05:15:59;;;;;;;18.57;12.73;;;;;;;6.34;74.68;100996.77;2878327;82;21011;-70
2022/03/28 05:20:01;;;;;;;20.80;12.82;;;;;;;7.10;73.65;100991.38;2829340;82;21035;-70
2022/03/28 05:24:04;;;;;;;35.43;12.30;;;;;;;7.84;71.90;100988.44;2829756;83;20996;-69
2022/03/28 05:28:05;;;;;;;18.73;13.35;;;;;;;8.35;69.29;100987.66;2838997;82;21004;-70
2022/03/28 05:32:08;;;;;;;17.52;12.07;;;;;;;8.80;66.81;100987.13;2865388;80;21019;-70
2022/03/28 05:36:10;;;;;;;20.80;11.28;;;;;;;9.30;66.56;100989.26;2877177;80;21022;-70
2022/03/28 05:40:13;;;;;;;19.02;11.93;;;;;;;9.92;66.30;100986.98;2869970;80;21082;-70
2022/03/28 05:44:14;;;;;;;23.50;12.43;;;;;;;10.67;66.09;100981.40;2876798;80;21047;-70
2022/03/28 05:48:15;;;;;;;23.07;11.85;;;;;;;11.34;64.92;100980.13;2862808;82;21007;-70
2022/03/28 05:52:17;;;;;;;23.92;13.15;;;;;;;11.92;62.11;100974.51;2876374;80;21067;-70
2022/03/28 05:56:18;;;;;;;18.42;11.80;;;;;;;12.26;60.93;100968.77;2877700;81;20988;-69
2022/03/28 06:00:20;;;;;;;19.48;12.47;;;;;;;12.70;59.05;100968.89;2867993;81;21054;-69
2022/03/28 06:04:22;;;;;;;15.28;10.60;;;;;;;13.16;58.38;100966.63;2865761;80;21036;-69
2022/03/28 06:08:23;;;;;;;17.73;11.00;;;;;;;13.47;58.13;100956.94;2876100;82;21039;-70
2022/03/28 06:12:25;;;;;;;15.90;11.08;;;;;;;13.73;57.54;100951.21;2876416;82;21036;-70
2022/03/28 06:16:27;;;;;;;15.13;10.50;;;;;;;13.97;57.77;100956.30;2885847;80;21012;-69
2022/03/28 06:20:28;;;;;;;16.20;10.70;;;;;;;14.25;57.52;100946.38;2919834;80;21000;-70
2022/03/28 06:24:30;;;;;;;12.63;9.35;;;;;;;14.38;57.94;100943.47;2854372;80;21028;-70
2022/03/28 06:28:32;;;;;;;10.15;8.98;;;;;;;14.42;57.12;100938.20;2870067;80;21052;-69
2022/03/28 06:32:33;;;;;;;14.23;10.18;;;;;;;14.49;58.01;100929.14;2863132;81;21014;-69
2022/03/28 06:36:35;;;;;;;10.85;9.65;;;;;;;14.56;57.79;100928.97;2770465;83;21072;-69
2022/03/28 06:40:36;;;;;;;16.87;9.93;;;;;;;14.66;58.24;100923.14;2881566;82;21556;-70
2022/03/28 06:44:38;;;;;;;16.82;10.58;;;;;;;14.80;58.73;100916.57;2876059;82;21039;-70
2022/03/28 06:48:40;;;;;;;14.43;9.98;;;;;;;14.92;58.25;100915.95;2884336;80;21031;-70
2022/03/28 06:52:42;;;;;;;13.98;10.88;;;;;;;15.21;57.53;100917.83;2832224;82;21056;-70
2022/03/28 06:56:45;;;;;;;16.27;10.20;;;;;;;15.46;57.54;100908.84;2834657;82;21050;-70
2022/03/28 07:00:46;;;;;;;15.85;11.08;;;;;;;15.63;57.34;100901.06;2875741;81;21088;-70
2022/03/28 07:04:49;;;;;;;13.13;10.25;;;;;;;15.66;57.08;100895.41;2882924;82;21048;-70
2022/03/28 07:08:53;;;;;;;12.47;9.28;;;;;;;15.59;57.68;100898.33;2872698;81;21143;-73
2022/03/28 07:12:55;;;;;;;9.95;8.80;;;;;;;15.53;58.11;100892.56;2884548;81;21060;-66
2022/03/28 07:16:57;;;;;;;12.93;10.18;;;;;;;15.57;57.64;100879.69;2866670;81;21029;-79
2022/03/28 07:20:58;;;;;;;11.73;10.08;;;;;;;15.65;58.09;100883.00;2792126;81;68074;-70
2022/03/28 07:25:00;;;;;;;13.35;9.58;;;;;;;15.67;58.90;100879.67;2866618;82;21027;-65
2022/03/28 07:29:03;;;;;;;11.95;9.05;;;;;;;15.61;59.38;100874.38;2881003;82;21066;-66
2022/03/28 07:33:06;;;;;;;14.60;9.43;;;;;;;15.58;58.81;100875.19;2885371;81;21042;-66
2022/03/28 07:37:09;;;;;;;12.85;9.23;;;;;;;15.59;58.97;100870.17;2886517;81;21659;-65
2022/03/28 07:41:10;;;;;;;12.23;9.20;;;;;;;15.49;59.93;100858.95;2888714;81;21037;-66
2022/03/28 07:45:14;;;;;;;15.53;11.70;;;;;;;15.51;59.71;100863.68;2878370;81;21025;-66
2022/03/28 07:49:19;;;;;;;12.37;8.73;;;;;;;15.74;59.14;100845.94;2898275;82;20982;-66
2022/03/28 07:53:21;;;;;;;17.23;11.20;;;;;;;15.62;60.37;100856.48;2883049;81;21062;-67
2022/03/28 07:57:23;;;;;;;13.40;11.65;;;;;;;15.85;60.46;100844.91;2859740;82;21025;-66
2022/03/28 08:01:25;;;;;;;15.55;10.88;;;;;;;15.85;59.90;100838.20;2838070;81;21095;-67
2022/03/28 08:05:28;;;;;;;16.77;11.80;;;;;;;16.04;59.21;100839.16;2701164;85;21629;-66
2022/03/28 08:09:29;;;;;;;16.35;13.53;;;;;;;16.09;57.95;100828.81;2758783;84;20995;-66
2022/03/28 08:13:31;;;;;;;16.62;12.50;;;;;;;16.24;58.34;100834.52;2767142;84;20999;-66
2022/03/28 08:17:35;;;;;;;16.95;12.33;;;;;;;16.28;57.88;100830.05;2746918;85;21048;-66
2022/03/28 08:21:36;;;;;;;17.85;11.83;;;;;;;16.33;58.62;100820.69;2732575;86;21064;-66
2022/03/28 08:25:39;;;;;;;14.10;10.85;;;;;;;16.46;57.85;100806.90;2717708;86;21611;-66
2022/03/28 08:29:40;;;;;;;14.58;11.78;;;;;;;16.55;57.54;100808.69;2807829;83;21008;-66
2022/03/28 08:33:42;;;;;;;14.35;11.75;;;;;;;16.64;57.88;100806.94;2812851;82;20981;-66
2022/03/28 08:37:44;;;;;;;18.52;12.60;;;;;;;16.65;57.68;100789.30;2821329;83;21034;-68
2022/03/28 08:41:48;;;;;;;14.00;10.30;;;;;;;16.63;56.98;100789.95;2790892;84;21043;-66
2022/03/28 08:45:50;;;;;;;12.98;10.38;;;;;;;16.54;57.67;100788.20;2778288;85;21034;-66
2022/03/28 08:49:54;;;;;;;12.55;10.15;;;;;;;16.60;57.35;100785.38;2763232;85;21020;-66
2022/03/28 08:53:56;;;;;;;14.60;10.95;;;;;;;16.64;57.64;100781.42;2778526;83;21030;-67
2022/03/28 08:57:57;;;;;;;13.38;11.43;;;;;;;16.69;58.32;100777.25;2847743;83;21027;-66
2022/03/28 09:01:59;;;;;;;17.00;10.85;;;;;;;16.75;57.40;100769.59;2845913;82;21014;-66
2022/03/28 09:06:00;;;;;;;14.98;11.43;;;;;;;16.66;57.15;100760.10;2807778;83;21011;-65
2022/03/28 09:10:06;;;;;;;17.87;12.13;;;;;;;16.68;56.46;100763.47;2818679;82;21014;-66
2022/03/28 09:14:14;;;;;;;16.87;12.75;;;;;;;16.70;56.30;100749.91;2827785;82;21019;-67
2022/03/28 09:18:30;;;;;;;16.55;12.05;;;;;;;16.67;55.73;100734.93;2784926;82;21009;-68
2022/03/28 09:22:37;;;;;;;;;;;;;;;16.73;55.16;100740.19;2824474;82;21028;-67
2022/03/28 09:26:39;;;;;;;26.27;11.33;;;;;;;16.72;55.85;100735.81;2835222;82;20110;-67
2022/03/28 09:30:40;;;;;;;19.82;11.48;;;;;;;16.90;55.30;100727.75;2833218;82;21036;-67
2022/03/28 09:34:42;;;;;;;14.23;10.78;;;;;;;17.09;54.81;100717.80;2816740;82;21067;-67
2022/03/28 09:38:57;;;;;;;18.12;10.58;;;;;;;17.19;54.13;100711.83;2838791;83;21067;-67
2022/03/28 09:43:00;;;;;;;16.73;12.40;;;;;;;17.34;54.95;100713.42;2837768;83;21059;-67
2022/03/28 09:47:12;;;;;;;16.73;10.80;;;;;;;17.42;54.61;100708.59;2821457;82;21064;-68
2022/03/28 09:51:16;;;;;;;15.35;10.65;;;;;;;17.46;55.14;100715.84;2833966;82;21079;-67
2022/03/28 09:55:16;;;;;;;14.20;11.20;;;;;;;17.53;54.57;100708.31;2808299;83;21043;-67
2022/03/28 09:59:21;;;;;;;12.78;11.20;;;;;;;17.67;54.41;100704.65;2796280;84;21036;-67
2022/03/28 10:03:23;;;;;;;15.80;9.18;;;;;;;17.62;52.77;100693.05;2816695;83;21074;-67
2022/03/28 10:07:25;;;;;;;20.05;13.03;;;;;;;17.64;53.37;100696.42;2875635;82;20994;-67
2022/03/28 10:11:27;;;;;;;16.50;10.80;;;;;;;17.87;53.64;100688.23;2836145;82;21018;-67
2022/03/28 10:15:30;;;;;;;17.05;11.85;;;;;;;17.93;54.14;100672.80;2838575;82;21026;-67
2022/03/28 10:19:37;;;;;;;14.15;9.93;;;;;;;18.05;53.10;100668.80;2877089;82;21065;-68
2022/03/28 10:23:44;;;;;;;18.07;11.28;;;;;;;18.04;53.17;100659.04;2854574;82;21006;-67
2022/03/28 10:27:46;;;;;;;20.88;11.95;;;;;;;18.11;51.77;100660.56;2833603;83;21073;-67
2022/03/28 10:31:57;;;;;;;17.15;10.50;;;;;;;18.05;53.02;100650.48;2822198;83;21090;-67
2022/03/28 10:36:07;;;;;;;19.75;12.13;;;;;;;18.13;51.52;100638.36;2818732;82;21027;-66
2022/03/28 10:40:35;;;;;;;11.97;9.68;;;;;;;18.10;50.84;100633.31;2839835;83;20995;-67
2022/03/28 10:44:49;;;;;;;12.47;9.95;;;;;;;18.23;52.27;100631.47;2803512;82;21102;-67
2022/03/28 10:49:01;;;;;;;15.08;9.98;;;;;;;18.37;51.19;100617.83;2745467;85;21036;-67
2022/03/28 10:53:19;;;;;;;14.87;9.33;;;;;;;18.45;50.01;100610.25;2735583;86;21025;-67
2022/03/28 10:57:28;;;;;;;22.77;13.28;;;;;;;18.49;49.88;100606.23;2795119;83;21670;-67
2022/03/28 11:01:41;;;;;;;17.27;9.28;;;;;;;18.55;50.34;100596.11;2803473;83;21004;-67
2022/03/28 11:05:57;;;;;;;15.40;10.60;;;;;;;18.59;50.53;100585.84;2808435;83;21043;-67
2022/03/28 11:10:13;;;;;;;11.68;9.45;;;;;;;18.69;50.05;100576.56;2822545;83;21075;-66
2022/03/28 11:14:14;;;;;;;12.23;8.43;;;;;;;18.76;49.84;100574.52;2828034;83;21014;-66
2022/03/28 11:18:21;;;;;;;15.35;10.40;;;;;;;18.73;49.06;100562.73;2820394;83;21027;-66
2022/03/28 11:22:55;;;;;;;14.18;10.60;;;;;;;18.96;49.93;100569.05;2821124;82;21027;-66
2022/03/28 11:26:58;;;;;;;12.18;10.23;;;;;;;19.10;49.71;100554.55;2803333;83;21079;-66
2022/03/28 11:31:07;;;;;;;13.62;10.98;;;;;;;19.16;49.66;100543.55;2829510;83;21043;-66
2022/03/28 11:35:13;;;;;;;28.67;10.55;;;;;;;19.16;49.47;100537.66;2807210;83;21027;-65
2022/03/28 11:39:16;;;;;;;14.75;9.33;;;;;;;19.31;48.53;100528.83;2841360;82;21095;-66
2022/03/28 11:43:16;;;;;;;12.25;9.48;;;;;;;19.44;49.42;100517.45;2803673;83;21011;-66
2022/03/28 11:47:18;;;;;;;16.30;10.35;;;;;;;19.59;48.65;100513.46;2754069;85;21020;-66
2022/03/28 11:51:20;;;;;;;18.85;9.68;;;;;;;19.67;49.20;100508.02;2762949;84;21103;-70
2022/03/28 11:55:25;;;;;;;27.82;10.65;;;;;;;19.68;50.09;100503.77;2787975;83;21527;-70
2022/03/28 11:59:28;;;;;;;10.58;9.25;;;;;;;19.61;48.45;100493.39;2789366;84;21034;-70
2022/03/28 12:03:29;;;;;;;10.48;7.87;;;;;;;19.70;48.91;100483.38;2797888;83;20996;-69
2022/03/28 12:07:34;;;;;;;9.48;7.55;;;;;;;19.62;46.68;100473.48;2799038;84;21426;-69
2022/03/28 12:11:38;;;;;;;9.80;7.40;;;;;;;19.80;48.22;100462.34;2766894;83;21173;-69
2022/03/28 12:15:44;;;;;;;9.90;7.50;;;;;;;19.90;48.61;100453.17;2768089;85;21098;-69
2022/03/28 12:19:45;;;;;;;12.37;8.45;;;;;;;19.92;48.29;100440.36;2785144;83;21077;-69
2022/03/28 12:23:48;;;;;;;13.28;9.18;;;;;;;20.00;46.51;100434.05;2772072;84;21059;-69
2022/03/28 12:27:57;;;;;;;9.08;7.05;;;;;;;19.90;46.33;100415.38;2776415;84;21098;-70
2022/03/28 12:32:03;;;;;;;12.93;7.00;;;;;;;19.96;48.10;100414.17;2753897;85;21587;-69
2022/03/28 12:36:08;;;;;;;36.17;12.88;;;;;;;19.95;46.63;100400.84;2769120;84;21019;-69
2022/03/28 12:40:11;;;;;;;9.23;7.22;;;;;;;20.04;47.41;100406.47;2754277;85;21075;-69
2022/03/28 12:44:23;;;;;;;9.95;6.50;;;;;;;20.18;47.06;100399.42;2755257;85;21063;-69
2022/03/28 12:48:44;;;;;;;9.98;6.50;;;;;;;20.23;47.08;100377.23;2708681;85;21051;-69
2022/03/28 12:52:46;;;;;;;13.93;8.18;;;;;;;20.34;46.86;100386.22;2752568;85;21170;-69
2022/03/28 12:57:00;;;;;;;11.50;7.75;;;;;;;20.45;46.63;100375.45;2757773;85;21515;-69
2022/03/28 13:01:08;;;;;;;11.48;7.22;;;;;;;20.37;47.09;100365.58;2750402;84;21054;-69
2022/03/28 13:05:15;;;;;;;18.05;7.75;;;;;;;20.46;46.24;100357.39;2783401;85;21547;-69
2022/03/28 13:09:21;;;;;;;13.22;7.75;;;;;;;20.52;47.99;100352.03;2763951;84;21042;-69
2022/03/28 13:13:34;;;;;;;;;;;;;;;20.57;48.31;100337.14;2769402;84;21119;-69
2022/03/28 13:17:35;;;;;;;10.85;7.45;;;;;;;20.53;45.70;100332.09;2758800;84;20119;-69
2022/03/28 13:21:42;;;;;;;9.18;7.10;;;;;;;20.66;45.94;100320.62;2724525;86;21036;-69
2022/03/28 13:25:44;;;;;;;13.25;6.90;;;;;;;20.65;45.27;100312.69;2701730;85;21072;-66
2022/03/28 13:29:46;;;;;;;9.03;6.30;;;;;;;20.70;44.76;100307.54;2738714;85;21048;-66
2022/03/28 13:33:48;;;;;;;10.08;6.72;;;;;;;20.87;46.82;100293.30;2723631;85;21067;-67
2022/03/28 13:38:01;;;;;;;12.63;7.00;;;;;;;20.93;45.49;100284.41;2731854;85;21036;-67
2022/03/28 13:42:07;;;;;;;18.80;8.40;;;;;;;20.89;45.67;100285.83;2695316;86;21082;-67
2022/03/28 13:46:11;;;;;;;9.13;7.22;;;;;;;20.80;45.51;100267.56;2786417;83;21047;-66
2022/03/28 13:50:13;;;;;;;9.33;7.90;;;;;;;20.82;45.70;100270.05;2836168;82;21039;-66
2022/03/28 13:54:15;;;;;;;10.23;8.53;;;;;;;20.80;44.81;100259.95;2825242;83;21113;-68
2022/03/28 13:58:17;;;;;;;10.63;6.47;;;;;;;20.95;46.44;100254.48;2762782;85;21075;-67
2022/03/28 14:02:21;;;;;;;11.00;7.83;;;;;;;20.86;45.87;100255.64;2750715;85;21015;-68
2022/03/28 14:06:24;;;;;;;12.95;8.20;;;;;;;20.95;45.83;100243.14;2710490;86;21079;-68
2022/03/28 14:10:26;;;;;;;13.80;8.35;;;;;;;20.94;46.62;100233.36;2685139;87;21064;-68
2022/03/28 14:14:28;;;;;;;8.73;7.12;;;;;;;21.00;45.32;100236.30;2720001;86;20997;-68
2022/03/28 14:18:30;;;;;;;13.88;7.12;;;;;;;21.04;45.49;100225.44;2746307;85;21087;-68
2022/03/28 14:22:32;;;;;;;10.85;9.45;;;;;;;20.95;46.13;100222.05;2729174;85;21028;-68
2022/03/28 14:26:34;;;;;;;15.53;9.58;;;;;;;20.89;44.82;100215.55;2695702;88;21072;-68
2022/03/28 14:30:36;;;;;;;12.58;9.33;;;;;;;21.04;44.69;100214.63;2695121;87;21154;-67
2022/03/28 14:34:37;;;;;;;15.32;10.00;;;;;;;20.96;45.14;100198.03;2683622;86;21116;-67
2022/03/28 14:38:39;;;;;;;19.65;10.38;;;;;;;20.92;46.61;100190.81;2736611;85;21049;-68
2022/03/28 14:42:41;;;;;;;18.82;9.70;;;;;;;20.95;45.43;100200.41;2721687;86;21113;-67
2022/03/28 16:25:11;;;;;;;12.25;8.38;;;;;;;19.34;50.43;100078.09;2729687;77;21236;-58
2022/03/28 16:29:18;;;;;;;10.40;9.15;;;;;;;19.21;50.31;100068.80;2870178;81;21079;-59
2022/03/28 16:33:20;;;;;;;7.78;6.95;;;;;;;19.03;51.20;100063.81;2861191;81;21065;-60
2022/03/28 16:37:25;;;;;;;9.30;7.47;;;;;;;18.75;52.34;100058.21;2811305;83;20968;-59
2022/03/28 16:41:27;;;;;;;10.23;8.78;;;;;;;18.58;51.47;100066.46;2780839;83;21094;-58
2022/03/28 16:45:29;;;;;;;12.65;9.48;;;;;;;18.36;52.00;100050.18;2811918;83;20993;-59
2022/03/28 16:49:30;;;;;;;14.55;9.73;;;;;;;18.11;52.51;100050.41;2801516;83;21001;-59
2022/03/28 16:53:32;;;;;;;14.95;11.05;;;;;;;17.91;53.18;100045.16;2808199;82;21054;-63
2022/03/28 16:57:35;;;;;;;13.53;10.03;;;;;;;17.41;54.47;100043.63;2846980;81;21006;-60
2022/03/28 17:01:37;;;;;;;16.80;9.85;;;;;;;17.12;54.51;100038.91;2837541;80;21009;-59
2022/03/28 17:05:38;;;;;;;14.55;9.98;;;;;;;16.81;55.07;100041.00;2747486;83;21058;-59
2022/03/28 17:09:40;;;;;;;12.33;9.88;;;;;;;16.41;55.58;100032.36;2872698;80;21032;-59
2022/03/28 17:13:43;;;;;;;14.95;11.45;;;;;;;16.03;56.46;100032.06;2844850;81;20959;-58
2022/03/28 17:17:46;;;;;;;14.65;10.25;;;;;;;15.75;57.31;100033.70;2813234;82;21083;-61
2022/03/28 17:21:52;;;;;;;54.98;16.55;;;;;;;15.55;56.98;100032.67;2843019;82;21046;-59
2022/03/28 17:25:52;;;;;;;15.45;9.95;;;;;;;15.37;57.66;100024.73;2816936;82;21135;-59
2022/03/28 17:29:54;;;;;;;16.73;12.23;;;;;;;15.13;58.91;100022.81;2848949;82;20992;-58
2022/03/28 17:33:57;;;;;;;12.60;11.20;;;;;;;15.00;58.64;100013.90;2822553;82;21028;-59
2022/03/28 17:37:58;;;;;;;19.12;12.45;;;;;;;14.70;58.77;100015.58;2835519;82;20984;-60
2022/03/28 17:42:01;;;;;;;17.25;11.00;;;;;;;14.43;59.07;100017.45;2822254;82;21018;-61
2022/03/28 17:46:09;;;;;;;16.37;11.57;;;;;;;14.23;58.94;100014.13;2788704;78;21019;-61
2022/03/28 17:50:06;;;;;;;21.65;13.90;;;;;;;14.01;59.78;100018.16;2838754;81;21028;-63
2022/03/28 17:54:09;;;;;;;20.55;14.30;;;;;;;13.81;60.83;100021.48;2782693;84;20984;-59
2022/03/28 17:58:11;;;;;;;19.57;13.00;;;;;;;13.71;60.93;100017.55;2871848;80;20965;-61
2022/03/28 18:02:14;;;;;;;17.40;13.80;;;;;;;13.61;60.98;100014.95;2842519;82;21016;-57
2022/03/28 18:06:19;;;;;;;18.27;12.93;;;;;;;13.57;60.58;100017.59;2856807;80;21050;-58
2022/03/28 18:10:20;;;;;;;20.68;14.63;;;;;;;13.42;61.03;100013.24;2833882;82;20962;-58
2022/03/28 18:14:22;;;;;;;20.68;14.15;;;;;;;13.25;61.48;100014.40;2815331;80;21038;-60
2022/03/28 18:18:23;;;;;;;24.23;13.55;;;;;;;13.09;61.94;100020.41;2867684;79;20997;-60
2022/03/28 18:22:26;;;;;;;26.48;17.20;;;;;;;12.93;61.88;100015.69;2765279;81;20966;-60
2022/03/28 18:26:28;;;;;;;23.25;16.32;;;;;;;12.77;61.76;100014.14;2855307;81;20986;-59
2022/03/28 18:30:30;;;;;;;26.05;18.60;;;;;;;12.62;61.78;100021.30;2808854;83;20990;-59
2022/03/28 18:34:32;;;;;;;23.57;14.78;;;;;;;12.47;62.46;100010.75;2762543;82;21036;-62
2022/03/28 18:38:36;;;;;;;31.60;17.23;;;;;;;12.22;63.44;100013.88;2900163;81;20963;-61
2022/03/28 18:42:37;;;;;;;22.42;18.15;;;;;;;12.00;64.39;100011.85;2804759;81;21018;-60
2022/03/28 18:46:39;;;;;;;28.02;17.65;;;;;;;11.88;64.94;100010.81;2830271;82;20955;-62
2022/03/28 18:50:41;;;;;;;25.50;17.60;;;;;;;11.87;64.97;100013.95;2844300;82;20937;-58
2022/03/28 18:54:42;;;;;;;34.35;20.30;;;;;;;11.84;64.72;100011.10;2848345;80;21001;-60
2022/03/28 18:58:44;;;;;;;27.73;19.62;;;;;;;11.81;64.53;100015.39;2815147;82;21022;-58
2022/03/28 19:02:46;;;;;;;55.20;22.85;;;;;;;11.76;64.12;100014.94;2836708;80;21071;-58
2022/03/28 19:06:48;;;;;;;31.25;18.07;;;;;;;11.71;64.11;100011.86;2828466;82;21055;-60
2022/03/28 19:10:50;;;;;;;31.33;17.80;;;;;;;11.65;64.01;100005.77;2826434;83;21021;-57
2022/03/28 19:14:52;;;;;;;26.50;18.48;;;;;;;11.57;64.65;100009.13;2806926;83;21029;-58
2022/03/28 19:18:53;;;;;;;27.45;18.17;;;;;;;11.48;65.13;100005.48;2799173;82;21026;-59
2022/03/28 19:22:57;;;;;;;21.73;16.93;;;;;;;11.41;65.47;100004.36;2785542;83;21068;-58
2022/03/28 19:27:13;;;;;;;27.27;17.57;;;;;;;11.37;65.69;100001.59;2738609;85;21049;-63
2022/03/28 19:31:14;;;;;;;27.98;17.87;;;;;;;11.27;66.03;99995.78;2783949;83;20999;-57
2022/03/28 19:35:17;;;;;;;25.75;17.20;;;;;;;11.20;65.75;99991.14;2799470;82;21159;-59
2022/03/28 19:39:20;;;;;;;24.77;16.32;;;;;;;11.13;66.57;99990.84;2838198;82;21103;-58
2022/03/28 19:43:22;;;;;;;22.35;19.17;;;;;;;11.02;67.08;99986.47;2825494;82;21000;-60
2022/03/28 19:47:24;;;;;;;24.02;18.60;;;;;;;11.00;66.35;99977.78;2842892;82;21079;-60
2022/03/28 19:51:26;;;;;;;28.52;19.77;;;;;;;10.92;67.49;99975.80;2872749;82;20956;-59
2022/03/28 19:55:28;;;;;;;27.90;19.98;;;;;;;10.91;66.70;99971.45;2869695;80;21016;-61
2022/03/28 19:59:29;;;;;;;24.72;20.02;;;;;;;10.85;67.53;99965.36;2792616;82;21050;-58
2022/03/28 20:03:30;;;;;;;31.02;19.15;;;;;;;10.80;66.99;99960.91;2873432;80;21022;-58
2022/03/28 20:07:33;;;;;;;26.77;19.10;;;;;;;10.81;66.89;99959.95;2815417;82;21058;-59
2022/03/28 20:11:35;;;;;;;98.20;32.85;;;;;;;10.77;68.67;99963.84;2850375;81;20944;-58